Terminal Aerodrome Forecast
Issued by NWS

Home | Current Version | Previous Version | Text Only | Print | Product List | Glossary On
Versions: 1 2 3 4 5 6 7 8 9 10 11 12 13 14 15 16
000
FTUS43 KAPX 222320
TAFTVC
TAF
KTVC 222320Z 2300/2324 10007KT P6SM SCT040 OVC080
     FM230200 09007KT 5SM -RASN SCT015 OVC035
     FM230600 09008KT 4SM -RA BR OVC009
     FM231800 13006KT 4SM -RA BR OVC007=

USA.gov is the U.S. government's official web portal to all federal, state and local government web resources and services.